Time;durP1;ratioP1;P1;durP2;ratioP2;P2;SDS_P1;SDS_P2;PMS_P1;PMS_P2;Temp;Humidity;BMP_temperature;BMP_pressure;BME280_temperature;BME280_humidity;BME280_pressure;Samples;Min_cycle;Max_cycle;Signal;HPM_P1;HPM_P2
2023/03/05 00:01:11;;;;;;;1.85;1.40;;;;;;;-144.57;100.00;62443.72;5092090;28;20038;-61
2023/03/05 00:03:37;;;;;;;1.33;1.23;;;;;;;-144.57;100.00;62443.72;5091735;28;20413;-62
2023/03/05 00:06:03;;;;;;;1.58;1.30;;;;;;;-144.57;100.00;62443.72;5091702;28;20048;-61
2023/03/05 00:08:29;;;;;;;1.77;1.40;;;;;;;-144.57;100.00;62443.72;5093131;28;20064;-61
2023/03/05 00:10:59;;;;;;;1.50;1.40;;;;;;;-144.57;100.00;62443.72;5091717;28;20496;-62
2023/03/05 00:13:25;;;;;;;2.13;1.60;;;;;;;-144.57;100.00;62443.72;5091583;28;20085;-62
2023/03/05 00:15:50;;;;;;;1.83;1.60;;;;;;;-144.57;100.00;62443.72;5093272;28;20056;-61
2023/03/05 00:18:16;;;;;;;1.35;1.25;;;;;;;-144.57;100.00;62443.72;5091672;28;20093;-63
2023/03/05 00:20:42;;;;;;;3.20;1.70;;;;;;;-144.57;100.00;62443.72;5093106;28;20119;-61
2023/03/05 00:23:08;;;;;;;1.50;1.40;;;;;;;-144.57;100.00;62443.72;5092451;28;20047;-61
2023/03/05 00:25:37;;;;;;;1.83;1.40;;;;;;;-144.57;100.00;62443.72;5092882;28;20044;-61
2023/03/05 00:28:03;;;;;;;2.08;1.40;;;;;;;-144.57;100.00;62443.72;5092458;28;20596;-61
2023/03/05 00:30:30;;;;;;;1.80;1.30;;;;;;;-144.57;100.00;62443.72;5092305;28;20044;-61
2023/03/05 00:32:55;;;;;;;2.08;1.25;;;;;;;-144.57;100.00;62443.72;5091055;28;20047;-63
2023/03/05 00:35:21;;;;;;;1.60;1.38;;;;;;;-144.57;100.00;62443.72;5092257;28;20138;-60
2023/03/05 00:37:47;;;;;;;1.58;1.48;;;;;;;-144.57;100.00;62443.72;5092226;28;20032;-60
2023/03/05 00:40:13;;;;;;;1.35;1.17;;;;;;;-144.57;100.00;62443.72;5092637;28;20484;-60
2023/03/05 00:42:38;;;;;;;2.25;1.30;;;;;;;-144.57;100.00;62443.72;5090826;28;20044;-60
2023/03/05 00:45:06;;;;;;;1.10;1.10;;;;;;;-144.57;100.00;62443.72;5092453;28;20070;-60
2023/03/05 00:47:31;;;;;;;2.15;1.42;;;;;;;-144.57;100.00;62443.72;5092115;28;20590;-61
2023/03/05 00:49:57;;;;;;;3.35;1.50;;;;;;;-144.57;100.00;62443.72;5090929;28;20048;-60
2023/03/05 00:52:23;;;;;;;1.70;1.50;;;;;;;-144.57;100.00;62443.72;5090907;28;20092;-61
2023/03/05 00:54:48;;;;;;;1.40;1.30;;;;;;;-144.57;100.00;62443.72;5092343;28;20052;-59
2023/03/05 00:57:14;;;;;;;2.55;1.92;;;;;;;-144.57;100.00;62443.72;5090895;28;20055;-61
2023/03/05 00:59:40;;;;;;;1.77;1.42;;;;;;;-144.57;100.00;62443.72;5092103;28;20052;-61
2023/03/05 01:02:05;;;;;;;2.60;1.67;;;;;;;-144.57;100.00;62443.72;5091851;28;20051;-62
2023/03/05 01:04:31;;;;;;;3.08;1.50;;;;;;;-144.57;100.00;62443.72;5090548;28;20131;-62
2023/03/05 01:06:56;;;;;;;1.60;1.40;;;;;;;-144.57;100.00;62443.72;5090612;28;20040;-60
2023/03/05 01:09:24;;;;;;;2.70;1.65;;;;;;;-144.57;100.00;62443.72;5090502;28;20047;-61
2023/03/05 01:11:50;;;;;;;2.97;1.50;;;;;;;-144.57;100.00;62443.72;5090382;28;20640;-61
2023/03/05 01:14:17;;;;;;;2.08;1.40;;;;;;;-144.57;100.00;62443.72;5090461;28;20055;-60
2023/03/05 01:16:43;;;;;;;1.98;1.40;;;;;;;-144.57;100.00;62443.72;5091973;28;20472;-60
2023/03/05 01:19:10;;;;;;;1.70;1.35;;;;;;;-144.57;100.00;62443.72;5073704;28;20044;-62
2023/03/05 01:21:36;;;;;;;1.98;1.40;;;;;;;-144.57;100.00;62443.72;5091638;28;20598;-62
2023/03/05 01:24:03;;;;;;;1.67;1.30;;;;;;;-144.57;100.00;62443.72;5091855;28;20051;-60
2023/03/05 01:26:28;;;;;;;1.35;1.25;;;;;;;-144.57;100.00;62443.72;5091877;28;20134;-61
2023/03/05 01:28:55;;;;;;;1.65;1.52;;;;;;;-144.57;100.00;62443.72;5091667;28;20498;-59
2023/03/05 01:31:21;;;;;;;2.38;1.52;;;;;;;-144.57;100.00;62443.72;5091502;28;20131;-61
2023/03/05 01:33:46;;;;;;;2.88;1.60;;;;;;;-144.57;100.00;62443.72;5090117;28;20374;-61
2023/03/05 01:36:15;;;;;;;1.98;1.40;;;;;;;-144.57;100.00;62443.72;5091461;28;20044;-62
2023/03/05 01:38:45;;;;;;;2.45;1.30;;;;;;;-144.57;100.00;62443.72;5090035;28;20071;-61
2023/03/05 01:41:12;;;;;;;1.55;1.30;;;;;;;-144.57;100.00;62443.72;5091361;28;20047;-59
2023/03/05 01:43:39;;;;;;;1.40;1.30;;;;;;;-144.57;100.00;62443.72;5091863;28;20424;-61
2023/03/05 01:46:26;;;;;;;1.55;1.40;;;;;;;-144.57;100.00;62443.72;5077376;28;20398;-61
2023/03/05 01:49:14;;;;;;;1.80;1.20;;;;;;;-144.57;100.00;62443.72;5094105;28;20044;-63
2023/03/05 01:51:55;;;;;;;2.67;1.10;;;;;;;-144.57;100.00;62443.72;5094143;28;20072;-61
2023/03/05 01:54:23;;;;;;;1.40;1.20;;;;;;;-144.57;100.00;62443.72;5095569;28;20477;-61
2023/03/05 01:56:50;;;;;;;3.33;1.45;;;;;;;-144.57;100.00;62443.72;5095519;28;20101;-61
2023/03/05 01:59:16;;;;;;;1.10;1.10;;;;;;;-144.57;100.00;62443.72;5094370;28;20048;-61
2023/03/05 02:01:46;;;;;;;1.65;1.23;;;;;;;-144.57;100.00;62443.72;5093964;28;20520;-61
2023/03/05 02:04:15;;;;;;;1.73;1.33;;;;;;;-144.57;100.00;62443.72;5094030;28;20044;-62
2023/03/05 02:06:42;;;;;;;1.45;1.20;;;;;;;-144.57;100.00;62443.72;5077340;28;20047;-60
2023/03/05 02:09:07;;;;;;;1.45;0.98;;;;;;;-144.57;100.00;62443.72;5094266;28;20105;-60
2023/03/05 02:11:33;;;;;;;1.02;1.02;;;;;;;-144.57;100.00;62443.72;5095412;28;20111;-62
2023/03/05 02:14:00;;;;;;;0.95;0.90;;;;;;;-144.57;100.00;62443.72;5095047;28;20536;-61
2023/03/05 02:16:34;;;;;;;2.35;1.20;;;;;;;-144.57;100.00;62443.72;5076903;28;20040;-62
2023/03/05 02:19:04;;;;;;;2.42;1.20;;;;;;;-144.57;100.00;62443.72;5093924;28;20048;-59
2023/03/05 02:21:42;;;;;;;1.42;1.13;;;;;;;-144.57;100.00;62443.72;5095277;28;20520;-60
2023/03/05 02:24:31;;;;;;;1.95;1.30;;;;;;;-144.57;100.00;62443.72;5093643;28;20448;-60
2023/03/05 02:26:56;;;;;;;2.08;1.10;;;;;;;-144.57;100.00;62443.72;5093764;28;20040;-60
2023/03/05 02:29:23;;;;;;;1.23;1.13;;;;;;;-144.57;100.00;62443.72;5095092;28;20512;-60
2023/03/05 02:31:49;;;;;;;1.75;1.30;;;;;;;-144.57;100.00;62443.72;5094969;28;20507;-60
2023/03/05 02:34:15;;;;;;;3.78;1.10;;;;;;;-144.57;100.00;62443.72;5093414;28;20048;-60
2023/03/05 02:36:41;;;;;;;1.85;1.17;;;;;;;-144.57;100.00;62443.72;5093367;28;20042;-62
2023/03/05 02:39:08;;;;;;;2.58;1.50;;;;;;;-144.57;100.00;62443.72;5093431;28;20048;-59
2023/03/05 02:41:35;;;;;;;1.25;1.00;;;;;;;-144.57;100.00;62443.72;5093273;28;20040;-60
2023/03/05 02:44:00;;;;;;;1.20;1.10;;;;;;;-144.57;100.00;62443.72;5093272;28;20048;-59
2023/03/05 02:46:26;;;;;;;1.25;1.15;;;;;;;-144.57;100.00;62443.72;5093303;28;20075;-61
2023/03/05 02:48:52;;;;;;;1.90;1.20;;;;;;;-144.57;100.00;62443.72;5094296;28;20135;-61
2023/03/05 02:51:18;;;;;;;1.52;1.13;;;;;;;-144.57;100.00;62443.72;5093210;28;20036;-61
2023/03/05 02:53:45;;;;;;;1.80;1.30;;;;;;;-144.57;100.00;62443.72;5092629;28;20040;-60
2023/03/05 02:56:11;;;;;;;1.27;1.10;;;;;;;-144.57;100.00;62443.72;5093067;28;20097;-60
2023/03/05 02:58:37;;;;;;;3.08;1.10;;;;;;;-144.57;100.00;62443.72;5076069;28;20048;-61
2023/03/05 03:01:03;;;;;;;1.95;1.00;;;;;;;-144.57;100.00;62443.72;5094299;28;20040;-62
2023/03/05 03:03:29;;;;;;;1.73;1.30;;;;;;;-144.57;100.00;62443.72;5092847;28;20048;-61
2023/03/05 03:05:54;;;;;;;1.17;1.08;;;;;;;-144.57;100.00;62443.72;5093114;28;20086;-62
2023/03/05 03:08:20;;;;;;;1.30;1.08;;;;;;;-144.57;100.00;62443.72;5075824;28;20044;-64
2023/03/05 03:10:46;;;;;;;1.63;1.13;;;;;;;-144.57;100.00;62443.72;5059224;28;20040;-60
2023/03/05 03:13:12;;;;;;;1.52;1.17;;;;;;;-144.57;100.00;62443.72;5076034;28;20454;-61
2023/03/05 03:15:39;;;;;;;1.20;1.10;;;;;;;-144.57;100.00;62443.72;5094264;28;20048;-62
2023/03/05 03:18:05;;;;;;;2.65;1.20;;;;;;;-144.57;100.00;62443.72;5093785;28;20059;-62
2023/03/05 03:20:31;;;;;;;1.48;1.10;;;;;;;-144.57;100.00;62443.72;5094079;28;20036;-62
2023/03/05 03:22:57;;;;;;;1.10;1.00;;;;;;;-144.57;100.00;62443.72;5075407;28;20048;-62
2023/03/05 03:25:22;;;;;;;1.35;1.25;;;;;;;-144.57;100.00;62443.72;5093908;28;20040;-61
2023/03/05 03:27:51;;;;;;;2.75;1.40;;;;;;;-144.57;100.00;62443.72;5092406;28;20499;-60
2023/03/05 03:30:16;;;;;;;2.15;1.10;;;;;;;-144.57;100.00;62443.72;5093643;28;20048;-61
2023/03/05 03:32:42;;;;;;;1.10;1.00;;;;;;;-144.57;100.00;62443.72;5092131;28;20131;-61
2023/03/05 03:35:08;;;;;;;1.02;1.00;;;;;;;-144.57;100.00;62443.72;5093714;28;20503;-61
2023/03/05 03:37:35;;;;;;;1.02;1.02;;;;;;;-144.57;100.00;62443.72;5092005;28;20039;-61
2023/03/05 03:40:04;;;;;;;1.10;1.00;;;;;;;-144.57;100.00;62443.72;5093404;28;20134;-61
2023/03/05 03:42:29;;;;;;;1.30;1.10;;;;;;;-144.57;100.00;62443.72;5093294;28;20058;-61
2023/03/05 03:44:55;;;;;;;4.00;1.50;;;;;;;-144.57;100.00;62443.72;5093362;28;20040;-62
2023/03/05 03:47:21;;;;;;;1.35;1.10;;;;;;;-144.57;100.00;62443.72;5092142;28;20072;-62
2023/03/05 03:49:47;;;;;;;1.63;1.35;;;;;;;-144.57;100.00;62443.72;5093562;28;20085;-60
2023/03/05 03:52:12;;;;;;;2.03;1.13;;;;;;;-144.57;100.00;62443.72;5075158;28;20040;-63
2023/03/05 03:54:38;;;;;;;1.52;1.25;;;;;;;-144.57;100.00;62443.72;5093312;28;20036;-60
2023/03/05 03:57:04;;;;;;;1.52;1.20;;;;;;;-144.57;100.00;62443.72;5093211;28;20059;-61
2023/03/05 03:59:29;;;;;;;1.73;1.20;;;;;;;-144.57;100.00;62443.72;5091854;28;20139;-59
2023/03/05 04:01:55;;;;;;;1.90;1.00;;;;;;;-144.57;100.00;62443.72;5091765;28;20051;-62
2023/03/05 04:04:21;;;;;;;1.60;1.30;;;;;;;-144.57;100.00;62443.72;5093071;28;20135;-61
2023/03/05 04:06:46;;;;;;;1.20;1.10;;;;;;;-144.57;100.00;62443.72;5092083;28;20059;-63
2023/03/05 04:09:12;;;;;;;4.47;1.30;;;;;;;-144.57;100.00;62443.72;5074681;28;20055;-62
2023/03/05 04:11:38;;;;;;;1.10;1.02;;;;;;;-144.57;100.00;62443.72;5092822;28;20036;-61
2023/03/05 04:14:04;;;;;;;1.33;1.20;;;;;;;-144.57;100.00;62443.72;5091426;28;20059;-61
2023/03/05 04:16:30;;;;;;;3.15;1.40;;;;;;;-144.57;100.00;62443.72;5091499;28;20098;-61
2023/03/05 04:18:56;;;;;;;2.08;1.33;;;;;;;-144.57;100.00;62443.72;5092734;28;20074;-62
2023/03/05 04:21:21;;;;;;;1.30;1.20;;;;;;;-144.57;100.00;62443.72;5092523;28;20532;-62
2023/03/05 04:23:47;;;;;;;1.30;1.17;;;;;;;-144.57;100.00;62443.72;5091471;28;20055;-61
2023/03/05 04:26:13;;;;;;;2.38;1.67;;;;;;;-144.57;100.00;62443.72;5091314;28;20036;-62
2023/03/05 04:28:38;;;;;;;1.52;1.10;;;;;;;-144.57;100.00;62443.72;5091106;28;20292;-61
2023/03/05 04:31:04;;;;;;;1.17;1.10;;;;;;;-144.57;100.00;62443.72;5092324;28;20036;-63
2023/03/05 04:33:30;;;;;;;2.15;1.10;;;;;;;-144.57;100.00;62443.72;5092361;28;20059;-60
2023/03/05 04:35:56;;;;;;;3.03;1.13;;;;;;;-144.57;100.00;62443.72;5092341;28;20495;-61
2023/03/05 04:38:21;;;;;;;1.83;1.25;;;;;;;-144.57;100.00;62443.72;5092134;28;20046;-62
2023/03/05 04:40:47;;;;;;;1.73;1.30;;;;;;;-144.57;100.00;62443.72;5092783;28;20130;-61
2023/03/05 04:43:13;;;;;;;1.67;1.10;;;;;;;-144.57;100.00;62443.72;5090919;28;20082;-60
2023/03/05 04:45:40;;;;;;;1.77;1.17;;;;;;;-144.57;100.00;62443.72;5092721;28;20134;-61
2023/03/05 04:48:06;;;;;;;3.30;1.30;;;;;;;-144.57;100.00;62443.72;5090875;28;20051;-61
2023/03/05 04:50:31;;;;;;;3.58;1.35;;;;;;;-144.57;100.00;62443.72;5090997;28;20040;-62
2023/03/05 04:52:57;;;;;;;1.10;1.00;;;;;;;-144.57;100.00;62443.72;5092344;28;20496;-61
2023/03/05 04:55:24;;;;;;;1.20;1.10;;;;;;;-144.57;100.00;62443.72;5091820;28;20055;-61
2023/03/05 04:57:50;;;;;;;1.50;1.20;;;;;;;-144.57;100.00;62443.72;5092032;28;20067;-61
2023/03/05 05:00:16;;;;;;;1.63;1.30;;;;;;;-144.57;100.00;62443.72;5090851;28;20070;-60
2023/03/05 05:02:46;;;;;;;1.08;0.98;;;;;;;-144.57;100.00;62443.72;5091836;28;20412;-62
2023/03/05 05:05:14;;;;;;;;;;;;;;;-144.57;100.00;62443.72;5091235;28;20040;-61
2023/03/05 05:07:40;;;;;;;1.77;1.20;;;;;;;-144.57;100.00;62443.72;5090652;28;19970;-61
2023/03/05 05:10:09;;;;;;;1.30;1.20;;;;;;;-144.57;100.00;62443.72;5090760;28;20044;-62
2023/03/05 05:12:35;;;;;;;2.00;1.10;;;;;;;-144.57;100.00;62443.72;5090496;28;20589;-60
2023/03/05 05:15:02;;;;;;;1.60;1.30;;;;;;;-144.57;100.00;62443.72;5092128;28;20127;-60
2023/03/05 05:17:31;;;;;;;2.03;1.20;;;;;;;-144.57;100.00;62443.72;5091699;28;20044;-62
2023/03/05 05:20:00;;;;;;;2.13;1.45;;;;;;;-144.57;100.00;62443.72;5090395;28;20047;-61
2023/03/05 05:22:28;;;;;;;1.30;1.23;;;;;;;-144.57;100.00;62443.72;5090412;28;20044;-62
2023/03/05 05:24:54;;;;;;;2.58;1.30;;;;;;;-144.57;100.00;62443.72;5090324;28;20134;-61
2023/03/05 05:27:20;;;;;;;2.42;1.20;;;;;;;-144.57;100.00;62443.72;5091573;28;20044;-62
2023/03/05 05:29:49;;;;;;;3.30;1.60;;;;;;;-144.57;100.00;62443.72;5091616;28;20124;-62
2023/03/05 05:32:16;;;;;;;1.35;1.25;;;;;;;-144.57;100.00;62443.72;5091647;28;20040;-61
2023/03/05 05:34:42;;;;;;;3.42;1.45;;;;;;;-144.57;100.00;62443.72;5091551;28;20489;-61
2023/03/05 05:37:08;;;;;;;1.67;1.40;;;;;;;-144.57;100.00;62443.72;5073510;28;20044;-62
2023/03/05 05:39:34;;;;;;;2.50;1.70;;;;;;;-144.57;100.00;62443.72;5090130;28;20083;-61
2023/03/05 05:42:00;;;;;;;1.88;1.40;;;;;;;-144.57;100.00;62443.72;5089966;28;20048;-62
2023/03/05 05:44:26;;;;;;;1.63;1.33;;;;;;;-144.57;100.00;62443.72;5091517;28;20116;-61
2023/03/05 05:46:51;;;;;;;2.92;1.50;;;;;;;-144.57;100.00;62443.72;5091323;28;20425;-65
2023/03/05 05:49:18;;;;;;;5.80;1.67;;;;;;;-144.57;100.00;62443.72;5091385;28;20096;-61
2023/03/05 05:51:43;;;;;;;2.78;1.70;;;;;;;-144.57;100.00;62443.72;5091329;28;20542;-63
2023/03/05 05:54:13;;;;;;;4.30;1.50;;;;;;;-144.57;100.00;62443.72;5091317;28;20048;-62
2023/03/05 05:56:40;;;;;;;2.65;1.65;;;;;;;-144.57;100.00;62443.72;5091251;28;20048;-62
2023/03/05 05:59:06;;;;;;;3.65;1.50;;;;;;;-144.57;100.00;62443.72;5091340;28;20082;-62
2023/03/05 06:01:33;;;;;;;1.67;1.50;;;;;;;-144.57;100.00;62443.72;5091102;28;20032;-63
2023/03/05 06:03:59;;;;;;;1.80;1.55;;;;;;;-144.57;100.00;62443.72;5090118;28;20056;-62
2023/03/05 06:06:26;;;;;;;3.03;1.73;;;;;;;-144.57;100.00;62443.72;5091245;28;20093;-61
2023/03/05 06:08:52;;;;;;;3.13;1.42;;;;;;;-144.57;100.00;62443.72;5072913;28;20879;-63
2023/03/05 06:11:18;;;;;;;2.33;1.70;;;;;;;-144.57;100.00;62443.72;5089777;28;20131;-63
2023/03/05 06:13:44;;;;;;;3.40;2.05;;;;;;;-144.57;100.00;62443.72;5091030;28;20044;-62
2023/03/05 06:16:12;;;;;;;4.45;1.80;;;;;;;-144.57;100.00;62443.72;5090148;28;20051;-63
2023/03/05 06:18:39;;;;;;;2.47;1.58;;;;;;;-144.57;100.00;62443.72;5090823;28;20508;-62
2023/03/05 06:21:07;;;;;;;4.50;2.13;;;;;;;-144.57;100.00;62443.72;5091283;28;20067;-64
2023/03/05 06:23:33;;;;;;;4.72;1.70;;;;;;;-144.57;100.00;62443.72;5090681;28;20519;-62
2023/03/05 06:26:00;;;;;;;3.85;1.85;;;;;;;-144.57;100.00;62443.72;5091061;28;20127;-63
2023/03/05 06:28:26;;;;;;;3.17;1.65;;;;;;;-144.57;100.00;62443.72;5090927;28;20036;-61
2023/03/05 06:31:24;;;;;;;5.40;1.80;;;;;;;-144.57;100.00;62443.72;5095081;28;20055;-62
2023/03/05 06:33:50;;;;;;;4.93;2.00;;;;;;;-144.57;100.00;62443.72;5093030;28;20586;-62
2023/03/05 06:36:19;;;;;;;2.88;1.80;;;;;;;-144.57;100.00;62443.72;5094945;28;20044;-62
2023/03/05 06:38:45;;;;;;;2.33;1.95;;;;;;;-144.57;100.00;62443.72;5093338;28;20040;-62
2023/03/05 06:41:13;;;;;;;2.45;1.77;;;;;;;-144.57;100.00;62443.72;5094567;28;20089;-63
2023/03/05 06:43:41;;;;;;;2.80;1.77;;;;;;;-144.57;100.00;62443.72;5093145;28;20040;-60
2023/03/05 06:46:11;;;;;;;4.68;1.77;;;;;;;-144.57;100.00;62443.72;5094537;28;20036;-62
2023/03/05 06:48:37;;;;;;;6.72;2.90;;;;;;;-144.57;100.00;62443.72;5094357;28;20043;-62
2023/03/05 06:51:03;;;;;;;6.80;2.50;;;;;;;-144.57;100.00;62443.72;5093395;28;20044;-62
2023/03/05 06:53:29;;;;;;;6.63;2.70;;;;;;;-144.57;100.00;62443.72;5092994;28;20036;-62
2023/03/05 06:55:55;;;;;;;3.75;2.72;;;;;;;-144.57;100.00;62443.72;5093309;28;20489;-63
2023/03/05 06:58:21;;;;;;;4.45;3.50;;;;;;;-144.57;100.00;62443.72;5094126;28;20093;-62
2023/03/05 07:00:47;;;;;;;5.38;3.30;;;;;;;-144.57;100.00;62443.72;5094648;28;20040;-63
2023/03/05 07:03:12;;;;;;;5.55;3.67;;;;;;;-144.57;100.00;62443.72;5094102;28;20040;-62
2023/03/05 07:05:41;;;;;;;4.97;3.47;;;;;;;-144.57;100.00;62443.72;5094576;28;20075;-62
2023/03/05 07:08:07;;;;;;;6.28;3.72;;;;;;;-144.57;100.00;62443.72;5092834;28;20171;-62
2023/03/05 07:10:38;;;;;;;5.10;3.90;;;;;;;-144.57;100.00;62443.72;5092646;28;20040;-62
2023/03/05 07:13:04;;;;;;;6.78;4.60;;;;;;;-144.57;100.00;62443.72;5094333;28;20040;-61
2023/03/05 07:15:29;;;;;;;5.75;4.30;;;;;;;-144.57;100.00;62443.72;5094474;28;20413;-63
2023/03/05 07:17:55;;;;;;;8.43;4.70;;;;;;;-144.57;100.00;62443.72;5093931;28;21703;-62
2023/03/05 07:20:21;;;;;;;6.63;4.47;;;;;;;-144.57;100.00;62443.72;5094275;28;20393;-62
2023/03/05 07:22:46;;;;;;;6.50;4.32;;;;;;;-144.57;100.00;62443.72;5075619;28;20086;-61
2023/03/05 07:25:12;;;;;;;6.75;4.18;;;;;;;-144.57;100.00;62443.72;5094177;28;20040;-62
2023/03/05 07:27:38;;;;;;;5.03;3.90;;;;;;;-144.57;100.00;62443.72;5093892;28;20044;-62
2023/03/05 07:30:04;;;;;;;4.13;3.65;;;;;;;-144.57;100.00;62443.72;5093978;28;20720;-62
2023/03/05 07:32:31;;;;;;;7.20;4.40;;;;;;;-144.57;100.00;62443.72;5093754;28;20416;-62
2023/03/05 07:34:56;;;;;;;3.70;3.00;;;;;;;-144.57;100.00;62443.72;5092316;28;20102;-61
2023/03/05 07:37:22;;;;;;;3.88;2.75;;;;;;;-144.57;100.00;62443.72;5093436;28;20139;-64
2023/03/05 07:39:48;;;;;;;4.38;3.13;;;;;;;-144.57;100.00;62443.72;5093260;28;20090;-62
2023/03/05 07:42:13;;;;;;;2.75;2.53;;;;;;;-144.57;100.00;62443.72;5091420;28;20039;-63
2023/03/05 07:44:51;;;;;;;3.03;2.70;;;;;;;-144.57;100.00;62443.72;5093565;28;20052;-61
2023/03/05 07:47:17;;;;;;;4.05;3.20;;;;;;;-144.57;100.00;62443.72;5093641;28;20040;-61
2023/03/05 07:49:43;;;;;;;6.45;3.70;;;;;;;-144.57;100.00;62443.72;5091994;28;20039;-62
2023/03/05 07:52:09;;;;;;;3.67;2.70;;;;;;;-144.57;100.00;62443.72;5093272;28;20085;-63
2023/03/05 07:54:37;;;;;;;4.93;2.70;;;;;;;-144.57;100.00;62443.72;5093389;28;20414;-61
2023/03/05 07:57:04;;;;;;;3.30;3.00;;;;;;;-144.57;100.00;62443.72;5092941;28;20063;-61
2023/03/05 07:59:30;;;;;;;5.65;4.70;;;;;;;-144.57;100.00;62443.72;5093289;28;20260;-61
2023/03/05 08:01:56;;;;;;;6.68;4.47;;;;;;;-144.57;100.00;62443.72;5092969;28;20044;-63
2023/03/05 08:04:22;;;;;;;4.80;3.10;;;;;;;-144.57;100.00;62443.72;5091648;28;20044;-63
2023/03/05 08:06:49;;;;;;;4.80;4.25;;;;;;;-144.57;100.00;62443.72;5074459;28;20048;-62
2023/03/05 08:09:15;;;;;;;4.43;2.92;;;;;;;-144.57;100.00;62443.72;5057387;28;20055;-62
2023/03/05 08:11:41;;;;;;;5.60;4.68;;;;;;;-144.57;100.00;62443.72;5092666;28;20055;-62
2023/03/05 08:14:07;;;;;;;5.50;3.60;;;;;;;-144.57;100.00;62443.72;5091299;28;20051;-62
2023/03/05 08:16:33;;;;;;;4.43;4.03;;;;;;;-144.57;100.00;62443.72;5092600;28;20032;-62
2023/03/05 08:18:59;;;;;;;4.50;3.38;;;;;;;-144.57;100.00;62443.72;5092653;28;20048;-61
2023/03/05 08:21:32;;;;;;;4.18;3.00;;;;;;;-144.57;100.00;62443.72;5092698;28;20456;-63
2023/03/05 08:23:59;;;;;;;5.75;4.10;;;;;;;-144.57;100.00;62443.72;5091289;28;20501;-61
2023/03/05 08:26:27;;;;;;;5.45;2.78;;;;;;;-144.57;100.00;62443.72;5092620;28;20137;-62
2023/03/05 08:28:54;;;;;;;5.78;3.53;;;;;;;-144.57;100.00;62443.72;5092384;28;20044;-62
2023/03/05 08:31:23;;;;;;;5.80;3.72;;;;;;;-144.57;100.00;62443.72;5091276;28;20090;-62
2023/03/05 08:33:51;;;;;;;7.43;3.72;;;;;;;-144.57;100.00;62443.72;5092608;28;20044;-62
2023/03/05 08:36:17;;;;;;;5.78;4.43;;;;;;;-144.57;100.00;62443.72;5091100;28;20036;-62
2023/03/05 08:38:43;;;;;;;4.85;4.10;;;;;;;-144.57;100.00;62443.72;5092340;28;20097;-61
2023/03/05 08:41:09;;;;;;;6.07;5.03;;;;;;;-144.57;100.00;62443.72;5091183;28;20455;-61
2023/03/05 08:43:35;;;;;;;6.55;4.35;;;;;;;-144.57;100.00;62443.72;5091927;28;20566;-62
2023/03/05 08:46:02;;;;;;;6.47;4.10;;;;;;;-144.57;100.00;62443.72;5092215;28;20082;-61
2023/03/05 08:48:28;;;;;;;5.88;3.70;;;;;;;-144.57;100.00;62443.72;5090888;28;20082;-62
2023/03/05 08:50:55;;;;;;;4.80;3.78;;;;;;;-144.57;100.00;62443.72;5092546;28;20036;-63
2023/03/05 08:53:21;;;;;;;5.72;4.95;;;;;;;-144.57;100.00;62443.72;5090423;28;20044;-62
2023/03/05 08:55:56;;;;;;;4.32;3.85;;;;;;;-144.57;100.00;62443.72;5092559;28;20055;-62
2023/03/05 08:58:22;;;;;;;5.15;4.50;;;;;;;-144.57;100.00;62443.72;5091273;28;20086;-62
2023/03/05 09:00:48;;;;;;;9.02;4.40;;;;;;;-144.57;100.00;62443.72;5091038;28;20051;-62
2023/03/05 09:03:14;;;;;;;6.65;4.88;;;;;;;-144.57;100.00;62443.72;5090665;28;20059;-62
2023/03/05 09:05:39;;;;;;;6.65;4.40;;;;;;;-144.57;100.00;62443.72;5092325;28;20481;-62
2023/03/05 09:08:05;;;;;;;6.30;4.85;;;;;;;-144.57;100.00;62443.72;5092077;28;20040;-63
2023/03/05 09:10:31;;;;;;;6.57;4.20;;;;;;;-144.57;100.00;62443.72;5090636;28;20048;-62
2023/03/05 09:12:56;;;;;;;4.70;4.28;;;;;;;-144.57;100.00;62443.72;5091568;28;20090;-62
2023/03/05 09:15:22;;;;;;;6.85;5.07;;;;;;;-144.57;100.00;62443.72;5092054;28;20040;-62
2023/03/05 09:17:48;;;;;;;5.20;3.85;;;;;;;-144.57;100.00;62443.72;5091566;28;20157;-62
2023/03/05 09:20:14;;;;;;;7.78;4.80;;;;;;;-144.57;100.00;62443.72;5091936;28;20051;-63
2023/03/05 09:22:39;;;;;;;7.70;3.70;;;;;;;-144.57;100.00;62443.72;5090205;28;20051;-62
2023/03/05 09:25:06;;;;;;;5.32;3.70;;;;;;;-144.57;100.00;62443.72;5090511;28;20044;-61
2023/03/05 09:27:33;;;;;;;5.40;3.72;;;;;;;-144.57;100.00;62443.72;5091401;28;20123;-62
2023/03/05 09:29:59;;;;;;;7.05;4.93;;;;;;;-144.57;100.00;62443.72;5073610;28;20086;-60
2023/03/05 09:32:24;;;;;;;5.50;3.88;;;;;;;-144.57;100.00;62443.72;5091530;28;20075;-63
2023/03/05 09:34:50;;;;;;;8.13;4.93;;;;;;;-144.57;100.00;62443.72;5091521;28;20549;-61
2023/03/05 09:37:16;;;;;;;6.40;3.97;;;;;;;-144.57;100.00;62443.72;5091778;28;20036;-63
2023/03/05 09:39:41;;;;;;;5.38;4.60;;;;;;;-144.57;100.00;62443.72;5090206;28;20186;-61
2023/03/05 09:42:28;;;;;;;7.80;5.40;;;;;;;-144.57;100.00;62443.72;5089930;28;20055;-62
2023/03/05 09:45:17;;;;;;;8.57;4.20;;;;;;;-144.57;100.00;62443.72;5090059;28;20054;-60
2023/03/05 09:47:45;;;;;;;7.43;3.30;;;;;;;-144.57;100.00;62443.72;5090280;28;20097;-62
2023/03/05 09:50:36;;;;;;;6.75;4.65;;;;;;;-144.57;100.00;62443.72;5090134;28;20520;-63
2023/03/05 09:53:17;;;;;;;7.60;5.50;;;;;;;-144.57;100.00;62443.72;5091261;28;20051;-62
2023/03/05 09:55:45;;;;;;;7.28;5.28;;;;;;;-144.57;100.00;62443.72;5091779;28;20044;-62
2023/03/05 09:58:41;;;;;;;8.45;4.93;;;;;;;-144.57;100.00;62443.72;5090054;28;20520;-62
2023/03/05 10:01:28;;;;;;;4.80;3.75;;;;;;;-144.57;100.00;62443.72;5063597;28;20134;-62
2023/03/05 10:04:02;;;;;;;7.57;4.40;;;;;;;-144.57;100.00;62443.72;5091927;28;20409;-61
2023/03/05 10:06:30;;;;;;;5.30;4.35;;;;;;;-144.57;100.00;62443.72;5095593;28;20040;-63
2023/03/05 10:09:08;;;;;;;4.68;3.75;;;;;;;-144.57;100.00;62443.72;5093918;28;20036;-61
2023/03/05 10:11:49;;;;;;;5.45;3.50;;;;;;;-144.57;100.00;62443.72;5095093;28;20051;-63
2023/03/05 10:14:25;;;;;;;7.82;4.57;;;;;;;-144.57;100.00;62443.72;5094837;28;20160;-61
2023/03/05 10:17:00;;;;;;;6.55;4.32;;;;;;;-144.57;100.00;62443.72;5094934;28;20097;-61
2023/03/05 10:19:34;;;;;;;7.43;4.40;;;;;;;-144.57;100.00;62443.72;5095204;28;20552;-61
2023/03/05 10:22:22;;;;;;;11.77;8.02;;;;;;;-144.57;100.00;62443.72;5095041;28;20075;-62
2023/03/05 10:24:48;;;;;;;10.23;7.13;;;;;;;-144.57;100.00;62443.72;5093742;28;20048;-61
2023/03/05 10:27:20;;;;;;;13.32;7.97;;;;;;;-144.57;100.00;62443.72;5094875;28;20048;-62
2023/03/05 10:30:18;;;;;;;12.10;8.65;;;;;;;-144.57;100.00;62443.72;5094705;28;20044;-60
2023/03/05 10:32:49;;;;;;;14.05;7.75;;;;;;;-144.57;100.00;62443.72;5088988;28;20048;-61
2023/03/05 10:35:39;;;;;;;13.80;6.78;;;;;;;-144.57;100.00;62443.72;5094924;28;20044;-62
2023/03/05 10:38:10;;;;;;;8.13;6.22;;;;;;;-144.57;100.00;62443.72;5094525;28;20134;-62
2023/03/05 10:40:52;;;;;;;9.43;7.38;;;;;;;-144.57;100.00;62443.72;5094996;28;20127;-61
2023/03/05 10:43:23;;;;;;;10.07;7.13;;;;;;;-144.57;100.00;62443.72;5093246;28;20074;-61
2023/03/05 10:45:52;;;;;;;12.35;8.77;;;;;;;-144.57;100.00;62443.72;5094601;28;20109;-62
2023/03/05 10:48:24;;;;;;;14.50;8.65;;;;;;;-144.57;100.00;62443.72;5094436;28;20048;-61
2023/03/05 10:50:54;;;;;;;8.52;6.30;;;;;;;-144.57;100.00;62443.72;5095101;28;20405;-61
2023/03/05 10:53:35;;;;;;;15.82;8.55;;;;;;;-144.57;100.00;62443.72;5094241;28;20123;-62
2023/03/05 10:56:03;;;;;;;10.32;7.18;;;;;;;-144.57;100.00;62443.72;5093113;28;20040;-61
2023/03/05 10:58:29;;;;;;;7.30;5.47;;;;;;;-144.57;100.00;62443.72;5092749;28;20528;-62
2023/03/05 11:01:11;;;;;;;13.43;7.90;;;;;;;-144.57;100.00;62443.72;5094720;28;20078;-63
2023/03/05 11:03:49;;;;;;;8.20;6.15;;;;;;;-144.57;100.00;62443.72;5092658;28;20048;-63
2023/03/05 11:06:15;;;;;;;12.25;7.43;;;;;;;-144.57;100.00;62443.72;5094407;28;20458;-61
2023/03/05 11:08:41;;;;;;;7.28;5.57;;;;;;;-144.57;100.00;62443.72;5092471;28;20417;-62
2023/03/05 11:11:07;;;;;;;7.00;5.32;;;;;;;-144.57;100.00;62443.72;5075776;28;20044;-62
2023/03/05 11:13:33;;;;;;;10.52;6.60;;;;;;;-144.57;100.00;62443.72;5094002;28;20116;-61